Aviation Digital Data Service (ADDS)

Output produced by TAFs form (1501 UTC 11 February 2016)
found at http://aviationweather.gov/adds/tafs/
 
KPUB 111129Z 1112/1212 VRB05KT P6SM FEW250 
     FM111600 28008KT P6SM FEW150 SCT250 
     FM112000 09007KT P6SM FEW140 SCT250 
     FM120200 02007KT P6SM SCT120 SCT200 
     FM120800 30005KT P6SM BKN200